createdAt,value
2024-03-27T00:02:00.836Z,7.68
2024-03-27T00:07:03.741Z,7.64
2024-03-27T00:12:07.194Z,7.58
2024-03-27T00:17:10.112Z,7.56
2024-03-27T00:22:12.960Z,7.55
2024-03-27T00:27:15.768Z,7.53
2024-03-27T00:32:18.885Z,7.53
2024-03-27T00:37:21.905Z,7.49
2024-03-27T00:42:25.403Z,7.46
2024-03-27T00:47:28.306Z,7.40
2024-03-27T00:52:31.210Z,7.36
2024-03-27T00:57:34.115Z,7.36
2024-03-27T01:02:37.018Z,7.31
2024-03-27T01:07:40.330Z,7.24
2024-03-27T01:12:43.240Z,7.23
2024-03-27T01:17:47.570Z,7.20
2024-03-27T01:22:50.579Z,7.14
2024-03-27T01:27:53.587Z,7.10
2024-03-27T01:32:58.342Z,7.06
2024-03-27T01:38:01.233Z,7.02
2024-03-27T01:43:04.455Z,7.00
2024-03-27T01:48:08.808Z,6.97
2024-03-27T01:53:14.747Z,6.96
2024-03-27T01:58:18.178Z,6.93
2024-03-27T02:03:21.083Z,6.92
2024-03-27T02:08:24.090Z,6.90
2024-03-27T02:13:27.000Z,6.86
2024-03-27T02:18:29.911Z,6.82
2024-03-27T02:23:40.787Z,6.80
2024-03-27T02:28:46.869Z,6.69
2024-03-27T02:33:49.771Z,6.56
2024-03-27T02:38:52.778Z,6.47
2024-03-27T02:43:55.985Z,6.40
2024-03-27T02:48:58.997Z,6.33
2024-03-27T02:54:01.902Z,6.24
2024-03-27T02:59:05.315Z,6.17
2024-03-27T03:04:08.226Z,6.06
2024-03-27T03:09:11.025Z,5.99
2024-03-27T03:14:13.830Z,5.95
2024-03-27T03:19:17.140Z,5.91
2024-03-27T03:24:19.941Z,5.90
2024-03-27T03:29:22.845Z,5.87
2024-03-27T03:34:25.851Z,5.80
2024-03-27T03:39:28.761Z,5.79
2024-03-27T03:44:31.664Z,5.77
2024-03-27T03:49:34.661Z,5.81
2024-03-27T03:54:37.678Z,5.83
2024-03-27T03:59:40.790Z,5.89
2024-03-27T04:04:43.687Z,5.99
2024-03-27T04:09:46.692Z,6.05
2024-03-27T04:14:53.090Z,6.08
2024-03-27T04:20:00.348Z,6.16
2024-03-27T04:25:04.812Z,6.22
2024-03-27T04:30:08.838Z,6.28
2024-03-27T04:35:11.770Z,6.39
2024-03-27T04:40:14.669Z,6.49
2024-03-27T04:45:17.579Z,6.59
2024-03-27T04:50:20.483Z,6.69
2024-03-27T04:55:23.479Z,6.81
2024-03-27T05:00:26.691Z,6.91
2024-03-27T05:05:29.491Z,7.03
2024-03-27T05:10:32.501Z,7.16
2024-03-27T05:15:35.310Z,7.34
2024-03-27T05:20:38.175Z,7.56
2024-03-27T05:25:41.113Z,7.73
2024-03-27T05:30:44.013Z,7.83
2024-03-27T05:35:46.916Z,7.90
2024-03-27T05:40:49.824Z,8.00
2024-03-27T05:45:53.685Z,8.14
2024-03-27T05:50:57.677Z,8.26
2024-03-27T05:56:00.895Z,8.39
2024-03-27T06:01:04.206Z,8.53
2024-03-27T06:06:07.418Z,8.76
2024-03-27T06:11:10.528Z,8.93
2024-03-27T06:16:13.742Z,9.13
2024-03-27T06:21:18.476Z,9.63
2024-03-27T06:26:22.826Z,10.18
2024-03-27T06:31:27.063Z,10.95
2024-03-27T06:36:30.072Z,11.71
2024-03-27T06:41:35.938Z,12.23
2024-03-27T06:46:39.163Z,12.76
2024-03-27T06:51:42.180Z,13.11
2024-03-27T06:56:45.786Z,13.56
2024-03-27T07:01:49.117Z,14.01
2024-03-27T07:06:52.097Z,14.27
2024-03-27T07:11:55.313Z,14.00
2024-03-27T07:16:58.209Z,12.93
2024-03-27T07:22:01.480Z,12.02
2024-03-27T07:27:04.639Z,11.42
2024-03-27T07:32:08.463Z,11.07
2024-03-27T07:37:11.470Z,10.84
2024-03-27T07:42:14.328Z,10.81
2024-03-27T07:47:17.281Z,10.82
2024-03-27T07:52:20.180Z,10.81
2024-03-27T07:57:23.497Z,10.92
2024-03-27T08:02:26.601Z,11.07
2024-03-27T08:07:29.576Z,11.20
2024-03-27T08:12:32.646Z,11.27
2024-03-27T08:17:35.724Z,11.34
2024-03-27T08:22:40.847Z,11.43
2024-03-27T08:27:43.750Z,11.65
2024-03-27T08:32:46.688Z,11.76
2024-03-27T08:37:54.890Z,11.69
2024-03-27T08:43:03.717Z,11.78
2024-03-27T08:48:06.856Z,11.94
2024-03-27T08:53:09.682Z,12.15
2024-03-27T08:58:12.631Z,12.59
2024-03-27T09:03:15.589Z,13.00
2024-03-27T09:08:18.590Z,13.20
2024-03-27T09:13:21.699Z,13.29
2024-03-27T09:18:24.601Z,13.50
2024-03-27T09:23:30.909Z,13.78
2024-03-27T09:28:33.790Z,14.00
2024-03-27T09:33:36.825Z,14.08
2024-03-27T09:38:39.807Z,14.03
2024-03-27T09:43:45.448Z,14.01
2024-03-27T09:48:51.147Z,14.05
2024-03-27T09:53:54.049Z,14.07
2024-03-27T09:58:58.701Z,14.35
2024-03-27T10:04:01.812Z,14.55
2024-03-27T10:09:08.034Z,14.68
2024-03-27T10:14:13.656Z,14.94
2024-03-27T10:19:16.564Z,15.11
2024-03-27T10:24:19.891Z,15.21
2024-03-27T10:29:22.780Z,15.18
2024-03-27T10:34:25.632Z,15.14
2024-03-27T10:39:33.196Z,15.21
2024-03-27T10:44:37.238Z,15.35
2024-03-27T10:49:42.157Z,15.37
2024-03-27T10:54:46.669Z,15.34
2024-03-27T10:59:55.778Z,15.40
2024-03-27T11:05:02.894Z,15.60
2024-03-27T11:10:06.467Z,15.82
2024-03-27T11:15:11.453Z,16.12
2024-03-27T11:20:15.596Z,16.16
2024-03-27T11:25:23.458Z,16.11
2024-03-27T11:30:28.546Z,16.18
2024-03-27T11:35:32.377Z,16.31
2024-03-27T11:40:35.735Z,16.33
2024-03-27T11:45:39.058Z,16.47
2024-03-27T11:50:43.032Z,16.52
2024-03-27T11:55:54.095Z,16.56
2024-03-27T12:01:00.426Z,16.52
2024-03-27T12:06:05.455Z,16.72
2024-03-27T12:11:11.716Z,16.92
2024-03-27T12:16:15.121Z,17.07
2024-03-27T12:21:17.992Z,17.23
2024-03-27T12:26:23.852Z,17.22
2024-03-27T12:31:29.334Z,17.12
2024-03-27T12:36:34.366Z,17.15
2024-03-27T12:41:37.370Z,17.14
2024-03-27T12:46:40.277Z,17.19
2024-03-27T12:51:43.195Z,17.33
2024-03-27T12:56:46.264Z,17.41
2024-03-27T13:01:49.409Z,17.50
2024-03-27T13:06:52.341Z,17.58
2024-03-27T13:11:55.422Z,17.62
2024-03-27T13:16:58.624Z,17.48
2024-03-27T13:22:02.150Z,17.39
2024-03-27T13:27:05.970Z,17.49
2024-03-27T13:32:11.966Z,17.65
2024-03-27T13:37:15.928Z,17.81
2024-03-27T13:42:19.091Z,17.81
2024-03-27T13:47:22.105Z,17.77
2024-03-27T13:52:25.202Z,17.77
2024-03-27T13:57:28.318Z,17.65
2024-03-27T14:02:31.378Z,17.72
2024-03-27T14:07:35.139Z,17.68
2024-03-27T14:12:38.357Z,17.49
2024-03-27T14:17:41.681Z,17.23
2024-03-27T14:22:46.985Z,17.17
2024-03-27T14:27:51.715Z,17.23
2024-03-27T14:32:54.783Z,17.31
2024-03-27T14:37:57.791Z,17.37
2024-03-27T14:43:00.895Z,17.42
2024-03-27T14:48:04.645Z,17.49
2024-03-27T14:53:08.021Z,17.51
2024-03-27T14:58:10.944Z,17.47
2024-03-27T15:03:14.986Z,17.42
2024-03-27T15:08:21.153Z,17.41
2024-03-27T15:13:24.362Z,17.28
2024-03-27T15:18:27.680Z,17.16
2024-03-27T15:23:30.892Z,17.07
2024-03-27T15:28:34.224Z,16.97
2024-03-27T15:33:37.518Z,16.88
2024-03-27T15:38:40.330Z,16.82
2024-03-27T15:43:43.527Z,16.75
2024-03-27T15:48:46.637Z,16.73
2024-03-27T15:53:49.645Z,16.71
2024-03-27T15:58:52.960Z,16.67
2024-03-27T16:03:58.648Z,16.63
2024-03-27T16:09:05.012Z,16.64
2024-03-27T16:14:07.923Z,16.52
2024-03-27T16:19:10.824Z,16.44
2024-03-27T16:24:14.043Z,16.35
2024-03-27T16:29:16.936Z,16.28
2024-03-27T16:34:19.849Z,16.23
2024-03-27T16:39:25.848Z,16.12
2024-03-27T16:44:35.658Z,16.06
2024-03-27T16:49:38.927Z,15.99
2024-03-27T16:54:45.591Z,15.91
2024-03-27T16:59:48.596Z,15.86
2024-03-27T17:04:51.516Z,15.75
2024-03-27T17:09:55.569Z,15.68
2024-03-27T17:14:58.847Z,15.61
2024-03-27T17:20:01.980Z,15.52
2024-03-27T17:25:05.533Z,15.40
2024-03-27T17:30:09.027Z,15.35
2024-03-27T17:35:12.007Z,15.32
2024-03-27T17:40:15.421Z,15.21
2024-03-27T17:45:18.321Z,15.15
2024-03-27T17:50:21.242Z,15.09
2024-03-27T17:55:24.643Z,15.01
2024-03-27T18:00:28.502Z,14.93
2024-03-27T18:05:31.370Z,14.86
2024-03-27T18:10:34.493Z,14.77
2024-03-27T18:15:38.572Z,14.67
2024-03-27T18:20:42.869Z,14.58
2024-03-27T18:25:45.857Z,14.49
2024-03-27T18:30:58.062Z,14.45
2024-03-27T18:36:01.422Z,14.43
2024-03-27T18:41:04.519Z,14.38
2024-03-27T18:46:07.616Z,14.30
2024-03-27T18:51:10.534Z,14.25
2024-03-27T18:56:13.547Z,14.23
2024-03-27T19:01:16.542Z,14.20
2024-03-27T19:06:19.746Z,14.12
2024-03-27T19:11:27.986Z,14.08
2024-03-27T19:16:38.621Z,14.05
2024-03-27T19:21:41.479Z,14.03
2024-03-27T19:26:44.774Z,13.90
2024-03-27T19:31:47.882Z,13.78
2024-03-27T19:36:51.844Z,13.69
2024-03-27T19:41:55.029Z,13.62
2024-03-27T19:46:59.488Z,13.56
2024-03-27T19:52:14.442Z,13.48
2024-03-27T19:57:21.760Z,13.40
2024-03-27T20:02:24.981Z,13.38
2024-03-27T20:07:31.208Z,13.32
2024-03-27T20:12:35.284Z,13.29
2024-03-27T20:17:38.307Z,13.26
2024-03-27T20:22:41.404Z,13.27
2024-03-27T20:27:44.303Z,13.24
2024-03-27T20:32:47.204Z,13.22
2024-03-27T20:37:50.085Z,13.22
2024-03-27T20:42:53.017Z,13.19
2024-03-27T20:47:55.922Z,13.14
2024-03-27T20:52:59.075Z,13.10
2024-03-27T20:58:02.138Z,13.07
2024-03-27T21:03:06.052Z,12.99
2024-03-27T21:08:09.284Z,12.89
2024-03-27T21:13:12.177Z,12.78
2024-03-27T21:18:15.188Z,12.71
2024-03-27T21:23:18.208Z,12.66
2024-03-27T21:28:21.342Z,12.61
2024-03-27T21:33:24.630Z,12.55
2024-03-27T21:38:27.929Z,12.47
2024-03-27T21:43:31.472Z,12.42
2024-03-27T21:48:34.998Z,12.38
2024-03-27T21:53:37.871Z,12.37
2024-03-27T21:58:40.625Z,12.31
2024-03-27T22:03:43.578Z,12.27
2024-03-27T22:08:46.480Z,12.18
2024-03-27T22:13:50.114Z,12.18
2024-03-27T22:18:53.148Z,12.22
2024-03-27T22:23:56.527Z,12.31
2024-03-27T22:28:59.537Z,12.41
2024-03-27T22:34:02.473Z,12.52
2024-03-27T22:39:05.343Z,12.55
2024-03-27T22:44:08.250Z,12.52
2024-03-27T22:49:11.180Z,12.50
2024-03-27T22:54:15.493Z,12.41
2024-03-27T22:59:18.408Z,12.35
2024-03-27T23:04:21.647Z,12.31
2024-03-27T23:09:24.518Z,12.23
2024-03-27T23:14:27.411Z,12.18
2024-03-27T23:19:30.317Z,12.14
2024-03-27T23:24:33.321Z,12.07
2024-03-27T23:29:36.128Z,11.98
2024-03-27T23:34:39.028Z,11.90
2024-03-27T23:39:41.830Z,11.81
2024-03-27T23:44:44.732Z,11.75
2024-03-27T23:49:47.640Z,11.74
2024-03-27T23:54:50.540Z,11.73
2024-03-27T23:59:54.679Z,11.66
